Time;durP1;ratioP1;P1;durP2;ratioP2;P2;SDS_P1;SDS_P2;PMS_P1;PMS_P2;Temp;Humidity;BMP_temperature;BMP_pressure;BME280_temperature;BME280_humidity;BME280_pressure;Samples;Min_cycle;Max_cycle;Signal;HPM_P1;HPM_P2
2023/06/09 00:02:39;;;;;;;17.10;14.50;;;;;;;15.97;66.10;98465.25;436352;1253;110814;-44
2023/06/09 00:22:55;;;;;;;21.70;14.60;;;;;;;16.02;66.96;98450.04;436696;1254;97841;-42
2023/06/09 00:33:00;;;;;;;;;;;;;;;16.08;67.57;98443.45;436795;1254;108076;-40
2023/06/09 00:43:08;;;;;;;17.80;14.90;;;;;;;16.07;67.87;98442.45;436285;1252;97922;-41
2023/06/09 00:53:16;;;;;;;19.80;13.50;;;;;;;16.08;68.21;98437.12;436351;1253;111630;-41
2023/06/09 01:03:24;;;;;;;13.50;12.00;;;;;;;16.34;68.49;98433.32;436427;1253;107305;-42
2023/06/09 01:13:46;;;;;;;15.20;11.40;;;;;;;16.58;68.73;98429.56;437350;1247;97879;-41
2023/06/09 01:24:04;;;;;;;15.00;13.30;;;;;;;16.67;68.76;98422.92;436460;1248;107414;-41
2023/06/09 01:34:13;;;;;;;18.00;13.80;;;;;;;16.66;69.11;98423.09;436531;1248;97471;-41
2023/06/09 01:44:20;;;;;;;18.40;13.30;;;;;;;16.66;69.15;98408.98;436404;1253;110319;-41
2023/06/09 01:54:35;;;;;;;16.30;12.00;;;;;;;16.68;69.32;98405.31;436362;1253;109946;-41
2023/06/09 02:04:45;;;;;;;16.50;11.70;;;;;;;16.76;69.61;98404.02;436538;1253;97858;-43
2023/06/09 02:14:56;;;;;;;16.30;13.30;;;;;;;16.81;69.86;98402.31;436648;1247;108632;-41
2023/06/09 02:35:12;;;;;;;18.00;14.30;;;;;;;16.68;70.21;98399.91;436503;1251;109947;-43
2023/06/09 02:45:19;;;;;;;17.80;13.90;;;;;;;16.71;70.30;98397.87;436274;1253;107969;-43
2023/06/09 02:55:26;;;;;;;13.50;12.00;;;;;;;16.87;70.64;98399.18;436383;1250;97515;-43
2023/06/09 03:05:35;;;;;;;18.40;14.70;;;;;;;16.98;70.61;98403.21;436384;1248;108704;-42
2023/06/09 03:15:40;;;;;;;;;;;;;;;16.91;70.80;98407.70;436565;1253;96637;-43
2023/06/09 03:35:57;;;;;;;17.20;15.00;;;;;;;16.70;71.05;98413.73;436044;1252;461044;-42
2023/06/09 03:46:04;;;;;;;18.10;14.10;;;;;;;16.80;71.56;98416.72;436309;1248;97868;-42
2023/06/09 03:56:11;;;;;;;15.50;13.20;;;;;;;16.95;71.80;98426.68;436259;1266;107660;-43
2023/06/09 04:06:19;;;;;;;18.80;15.70;;;;;;;17.07;72.03;98430.31;436402;1248;97858;-42
2023/06/09 04:16:26;;;;;;;18.20;14.70;;;;;;;17.04;72.28;98437.21;436417;1253;110938;-42
2023/06/09 04:26:33;;;;;;;18.30;14.70;;;;;;;17.14;72.43;98437.58;436355;1253;109892;-43
2023/06/09 04:36:41;;;;;;;16.60;13.90;;;;;;;17.28;72.55;98436.41;436470;1251;97884;-41
2023/06/09 04:46:49;;;;;;;23.20;14.50;;;;;;;17.53;72.91;98431.88;436517;1253;110012;-43
2023/06/09 04:56:57;;;;;;;;;;;;;;;17.69;72.68;98431.38;436423;1253;97863;-43
2023/06/09 05:07:06;;;;;;;17.70;12.90;;;;;;;18.05;72.73;98430.36;436353;1253;109503;-42
2023/06/09 05:17:13;;;;;;;16.10;14.40;;;;;;;18.35;73.07;98433.04;436300;1248;108663;-42
2023/06/09 05:27:20;;;;;;;15.80;13.10;;;;;;;18.42;73.17;98435.00;436355;1253;97203;-42
2023/06/09 05:47:34;;;;;;;16.60;14.90;;;;;;;18.94;73.89;98437.70;436335;1251;97140;-43
2023/06/09 05:57:41;;;;;;;16.40;14.10;;;;;;;19.44;73.34;98444.77;436490;1253;109104;-44
2023/06/09 06:07:49;;;;;;;19.00;14.30;;;;;;;19.87;72.97;98444.58;436287;1253;108138;-43
2023/06/09 06:17:56;;;;;;;20.10;16.40;;;;;;;20.11;72.68;98448.92;436520;1251;97930;-42
2023/06/09 06:28:04;;;;;;;17.00;15.20;;;;;;;20.43;72.24;98444.39;436396;1253;107408;-43
2023/06/09 06:38:11;;;;;;;16.00;13.60;;;;;;;20.88;72.06;98441.39;436375;1253;97896;-43
2023/06/09 06:48:19;;;;;;;16.30;13.90;;;;;;;21.40;71.62;98439.99;436465;1248;110817;-42
2023/06/09 07:08:33;;;;;;;16.20;12.80;;;;;;;21.67;69.46;98458.86;436299;1247;97852;-43
2023/06/09 07:18:40;;;;;;;15.00;13.60;;;;;;;21.60;69.40;98465.56;436362;1253;109725;-42
2023/06/09 07:28:48;;;;;;;16.30;14.60;;;;;;;21.90;69.25;98466.77;436287;1253;109511;-42
2023/06/09 07:38:54;;;;;;;;;;;;;;;21.69;68.57;98464.36;436244;1253;97884;-42
2023/06/09 07:49:02;;;;;;;14.90;13.10;;;;;;;21.54;68.94;98464.38;436338;1248;110691;-43
2023/06/09 07:59:08;;;;;;;15.10;13.70;;;;;;;21.58;68.75;98462.29;436246;1255;107970;-42
2023/06/09 08:09:16;;;;;;;15.80;12.00;;;;;;;21.40;68.59;98459.30;436397;1251;97855;-42
2023/06/09 08:19:23;;;;;;;14.70;13.20;;;;;;;21.74;68.58;98456.79;436382;1266;108083;-42
2023/06/09 08:29:31;;;;;;;14.00;12.50;;;;;;;21.84;67.91;98457.94;436298;1254;97867;-43
2023/06/09 08:39:38;;;;;;;18.20;13.80;;;;;;;21.97;67.59;98456.14;436367;1252;109787;-41
2023/06/09 08:49:47;;;;;;;13.90;12.40;;;;;;;22.13;67.35;98450.49;436325;1251;107934;-42
2023/06/09 08:59:55;;;;;;;15.60;14.00;;;;;;;22.14;66.66;98454.71;436377;1254;97890;-41
2023/06/09 09:10:03;;;;;;;13.90;12.10;;;;;;;21.97;66.53;98450.13;436281;1261;109968;-43
2023/06/09 09:20:10;;;;;;;;;;;;;;;22.18;66.30;98443.77;436338;1253;106999;-42
2023/06/09 09:30:16;;;;;;;16.60;10.60;;;;;;;22.29;65.93;98436.48;436476;1250;96653;-44
2023/06/09 09:40:23;;;;;;;11.50;10.30;;;;;;;22.42;65.17;98432.27;436904;1258;111304;-42
2023/06/09 09:50:31;;;;;;;13.20;11.40;;;;;;;22.81;65.01;98415.73;436388;1251;108360;-43
2023/06/09 10:00:39;;;;;;;14.90;10.50;;;;;;;23.28;64.14;98408.27;436350;1253;96651;-41
2023/06/09 10:10:46;;;;;;;12.30;10.80;;;;;;;23.41;63.24;98407.16;436354;1252;108881;-42
2023/06/09 10:20:55;;;;;;;10.90;9.80;;;;;;;23.49;62.46;98399.02;436471;1254;108343;-44
2023/06/09 10:31:04;;;;;;;9.80;8.60;;;;;;;24.00;60.88;98378.04;436571;1248;97868;-42
2023/06/09 10:41:20;;;;;;;9.50;8.50;;;;;;;24.51;59.50;98368.95;436326;1253;110085;-43
2023/06/09 10:51:43;;;;;;;9.10;8.30;;;;;;;24.90;57.34;98353.09;436548;1248;106899;-44
2023/06/09 11:02:20;;;;;;;11.10;8.70;;;;;;;24.77;56.85;98337.94;436286;1250;118433;-42
2023/06/09 11:12:30;;;;;;;15.40;8.10;;;;;;;24.53;56.13;98331.14;436380;1252;108512;-43
2023/06/09 11:22:58;;;;;;;13.50;7.90;;;;;;;25.19;54.87;98324.39;436377;1248;96687;-42
2023/06/09 11:33:06;;;;;;;10.20;8.20;;;;;;;25.04;53.45;98315.68;436313;1254;111256;-44
2023/06/09 11:43:13;;;;;;;17.50;8.60;;;;;;;25.29;53.51;98313.70;436394;1253;108089;-43
2023/06/09 12:03:28;;;;;;;10.00;7.90;;;;;;;25.56;51.75;98293.90;436363;1248;110753;-42
2023/06/09 12:23:55;;;;;;;12.90;7.40;;;;;;;25.35;51.07;98290.17;436345;1248;97851;-42
2023/06/09 12:34:03;;;;;;;9.40;8.40;;;;;;;24.77;51.90;98290.42;436434;1261;109583;-42
2023/06/09 12:44:19;;;;;;;7.60;6.90;;;;;;;24.10;53.01;98301.42;436329;1248;108580;-43
2023/06/09 12:54:28;;;;;;;7.40;6.70;;;;;;;22.84;53.82;98313.67;436243;1254;96676;-43
2023/06/09 13:04:35;;;;;;;17.10;9.40;;;;;;;22.04;56.02;98332.97;436315;1254;109925;-44
2023/06/09 13:14:43;;;;;;;9.10;8.20;;;;;;;21.67;57.77;98316.48;436320;1253;107975;-43
2023/06/09 13:24:50;;;;;;;9.20;8.40;;;;;;;21.71;59.49;98283.70;436240;1248;96667;-42
2023/06/09 13:34:57;;;;;;;11.10;9.90;;;;;;;21.86;60.72;98280.81;436309;1252;108440;-42
2023/06/09 13:45:04;;;;;;;14.80;10.60;;;;;;;22.06;61.46;98299.14;436260;1248;97957;-43
2023/06/09 14:05:21;;;;;;;15.00;13.40;;;;;;;22.18;62.61;98318.61;436222;1252;107771;-42
2023/06/09 14:15:29;;;;;;;18.10;12.70;;;;;;;22.19;63.42;98307.38;436246;1253;97862;-42
2023/06/09 14:25:37;;;;;;;9.70;8.80;;;;;;;22.51;63.42;98287.95;436339;1248;109740;-42
2023/06/09 14:35:45;;;;;;;12.00;10.80;;;;;;;22.36;64.02;98283.09;436447;1247;109319;-41
2023/06/09 14:45:53;;;;;;;9.90;9.00;;;;;;;22.04;64.25;98283.63;436280;1254;97522;-43
2023/06/09 14:56:00;;;;;;;9.50;8.60;;;;;;;21.77;64.26;98309.88;436314;1248;110868;-43
2023/06/09 15:06:07;;;;;;;11.50;8.40;;;;;;;21.16;65.62;98351.20;436199;1253;108033;-42
2023/06/09 15:26:22;;;;;;;11.30;8.80;;;;;;;20.31;67.59;98365.89;436411;1253;110972;-43
2023/06/09 15:36:30;;;;;;;11.20;8.60;;;;;;;20.14;67.80;98355.84;436026;1254;490949;-43
2023/06/09 15:46:37;;;;;;;11.40;9.90;;;;;;;19.88;68.65;98355.41;436389;1254;97860;-43
2023/06/09 15:56:44;;;;;;;10.50;8.50;;;;;;;19.74;68.87;98353.07;436323;1252;111200;-43
2023/06/09 16:06:53;;;;;;;10.30;8.70;;;;;;;19.74;69.13;98359.66;436249;1248;107939;-43
2023/06/09 16:17:02;;;;;;;13.20;9.20;;;;;;;19.70;69.64;98375.18;436250;1248;97552;-42
2023/06/09 16:27:09;;;;;;;14.20;11.00;;;;;;;19.62;70.00;98382.70;436148;1253;107670;-42
2023/06/09 16:37:17;;;;;;;16.60;10.60;;;;;;;19.50;70.04;98407.73;436182;1253;97894;-42
2023/06/09 16:47:25;;;;;;;20.70;11.60;;;;;;;19.11;71.46;98459.02;436284;1250;109839;-43
2023/06/09 16:57:32;;;;;;;20.20;12.30;;;;;;;18.53;73.06;98440.60;436187;1247;109320;-43
2023/06/09 17:07:40;;;;;;;17.50;13.20;;;;;;;18.41;73.34;98431.95;436172;1253;97890;-43
2023/06/09 17:17:46;;;;;;;14.70;10.40;;;;;;;18.35;73.82;98411.46;436131;1248;107407;-43
2023/06/09 17:27:54;;;;;;;20.80;11.10;;;;;;;18.33;74.49;98392.54;436280;1254;97969;-43
2023/06/09 17:38:01;;;;;;;12.60;11.00;;;;;;;18.40;74.83;98373.13;436224;1253;110862;-43
2023/06/09 17:48:07;;;;;;;15.60;10.60;;;;;;;18.55;74.81;98369.09;436208;1253;108231;-44
2023/06/09 17:58:15;;;;;;;15.90;10.90;;;;;;;18.35;74.92;98357.66;436345;1248;96563;-43
2023/06/09 18:08:22;;;;;;;16.60;11.60;;;;;;;18.25;74.79;98362.33;435984;1253;108595;-44
2023/06/09 18:18:30;;;;;;;14.30;11.50;;;;;;;18.11;75.52;98366.50;436266;1247;97881;-47
2023/06/09 18:28:38;;;;;;;17.10;12.20;;;;;;;18.15;75.96;98373.30;436243;1253;110657;-46
2023/06/09 18:38:45;;;;;;;15.70;12.90;;;;;;;18.06;76.28;98388.25;436178;1253;109461;-42
2023/06/09 18:48:52;;;;;;;15.30;13.80;;;;;;;17.78;76.31;98405.04;436407;1252;97944;-42
2023/06/09 18:59:08;;;;;;;16.10;13.90;;;;;;;17.36;76.90;98424.45;436233;1248;108165;-42
2023/06/09 19:09:15;;;;;;;16.70;14.50;;;;;;;17.12;77.47;98437.65;436480;1248;97890;-43
2023/06/09 19:19:23;;;;;;;17.30;14.30;;;;;;;17.10;77.90;98438.84;436245;1253;110758;-44
2023/06/09 19:29:29;;;;;;;14.50;11.90;;;;;;;17.17;78.30;98436.82;436320;1250;108046;-49
2023/06/09 19:39:36;;;;;;;11.50;8.80;;;;;;;17.21;78.31;98430.11;436313;1247;97880;-43
2023/06/09 19:49:44;;;;;;;10.90;9.80;;;;;;;17.15;78.55;98426.30;436384;1252;108001;-42
2023/06/09 19:59:53;;;;;;;11.50;10.00;;;;;;;17.13;78.70;98422.58;436301;1253;97867;-42
2023/06/09 20:10:00;;;;;;;10.70;9.70;;;;;;;17.18;79.08;98402.45;436262;1250;109908;-43
2023/06/09 20:20:11;;;;;;;11.50;10.30;;;;;;;17.32;79.14;98392.95;436344;1253;107634;-43
2023/06/09 20:30:18;;;;;;;12.40;9.40;;;;;;;17.35;79.08;98389.83;436474;1262;97868;-43
2023/06/09 20:50:32;;;;;;;12.80;11.60;;;;;;;17.06;79.44;98402.49;436487;1248;97927;-42
2023/06/09 21:00:41;;;;;;;14.70;12.70;;;;;;;17.06;79.71;98401.74;436338;1254;108660;-44
2023/06/09 21:10:49;;;;;;;16.20;14.30;;;;;;;16.95;79.51;98397.25;437021;1252;108878;-42
2023/06/09 21:20:56;;;;;;;;;;;;;;;16.97;80.00;98394.45;436695;1253;97837;-42
2023/06/09 21:31:03;;;;;;;22.90;16.80;;;;;;;16.97;80.07;98389.60;436282;1253;108546;-43
2023/06/09 21:51:16;;;;;;;24.10;18.60;;;;;;;16.96;80.56;98406.06;436331;1252;110790;-43
2023/06/09 22:01:23;;;;;;;25.00;20.00;;;;;;;16.92;80.58;98406.89;436320;1253;107799;-41
2023/06/09 22:11:30;;;;;;;24.00;19.90;;;;;;;16.88;80.87;98408.95;436445;1247;97865;-44
2023/06/09 22:21:36;;;;;;;26.30;21.70;;;;;;;16.85;81.04;98408.96;436426;1252;108349;-43
2023/06/09 22:31:44;;;;;;;22.70;20.30;;;;;;;16.85;81.20;98402.83;436335;1253;98227;-41
2023/06/09 22:41:51;;;;;;;27.20;21.20;;;;;;;16.83;81.27;98395.20;436307;1252;110638;-42
2023/06/09 22:52:00;;;;;;;28.00;23.60;;;;;;;16.81;81.37;98389.86;436281;1253;107503;-42
2023/06/09 23:02:08;;;;;;;30.00;23.10;;;;;;;16.81;81.56;98383.09;436331;1248;96679;-40
2023/06/09 23:12:15;;;;;;;29.20;24.80;;;;;;;16.82;81.70;98377.79;436259;1254;107360;-41
2023/06/09 23:22:22;;;;;;;29.10;23.10;;;;;;;16.79;81.68;98374.70;436360;1248;97892;-40
2023/06/09 23:32:28;;;;;;;27.10;22.30;;;;;;;16.75;82.00;98370.82;436303;1253;110137;-42
2023/06/09 23:42:36;;;;;;;24.90;22.20;;;;;;;16.76;82.23;98372.68;436303;1252;108477;-43
2023/06/09 23:52:43;;;;;;;28.60;23.80;;;;;;;16.75;82.24;98378.23;436288;1252;97859;-42
